createdAt,value
2019-03-28T00:01:58.247Z,11.87
2019-03-28T00:04:29.390Z,11.74
2019-03-28T00:07:00.522Z,11.72
2019-03-28T00:09:31.357Z,11.51
2019-03-28T00:12:02.076Z,11.41
2019-03-28T00:14:32.793Z,11.40
2019-03-28T00:17:03.517Z,11.41
2019-03-28T00:19:34.296Z,11.53
2019-03-28T00:22:05.819Z,11.34
2019-03-28T00:24:41.307Z,11.47
2019-03-28T00:27:12.577Z,11.26
2019-03-28T00:29:43.292Z,11.41
2019-03-28T00:32:14.076Z,11.28
2019-03-28T00:34:44.801Z,11.56
2019-03-28T00:37:15.870Z,11.26
2019-03-28T00:39:46.872Z,11.46
2019-03-28T00:42:17.940Z,11.24
2019-03-28T00:44:48.741Z,11.24
2019-03-28T00:47:19.796Z,11.34
2019-03-28T00:49:50.926Z,11.42
2019-03-28T00:52:22.380Z,11.42
2019-03-28T00:54:53.519Z,11.45
2019-03-28T00:57:24.437Z,11.39
2019-03-28T00:59:55.143Z,11.40
2019-03-28T01:02:26.121Z,11.42
2019-03-28T01:04:57.004Z,11.57
2019-03-28T01:07:27.894Z,11.36
2019-03-28T01:09:58.605Z,11.44
2019-03-28T01:12:29.496Z,11.45
2019-03-28T01:15:00.359Z,11.39
2019-03-28T01:17:31.739Z,11.26
2019-03-28T01:20:02.572Z,11.36
2019-03-28T01:22:33.330Z,11.54
2019-03-28T01:25:04.135Z,11.35
2019-03-28T01:27:35.173Z,11.34
2019-03-28T01:30:06.996Z,11.56
2019-03-28T01:32:37.790Z,11.65
2019-03-28T01:35:09.036Z,11.40
2019-03-28T01:37:39.703Z,11.40
2019-03-28T01:40:10.715Z,11.57
2019-03-28T01:42:41.750Z,11.20
2019-03-28T01:45:12.997Z,11.73
2019-03-28T01:47:43.770Z,11.52
2019-03-28T01:50:15.444Z,11.48
2019-03-28T01:52:46.295Z,11.61
2019-03-28T01:55:17.474Z,11.69
2019-03-28T01:57:48.145Z,10.97
2019-03-28T02:00:19.084Z,11.47
2019-03-28T02:02:50.244Z,11.35
2019-03-28T02:05:21.268Z,11.06
2019-03-28T02:07:52.054Z,11.40
2019-03-28T02:10:22.841Z,11.48
2019-03-28T02:12:53.554Z,11.17
2019-03-28T02:15:24.345Z,11.26
2019-03-28T02:17:55.496Z,11.24
2019-03-28T02:20:26.215Z,11.21
2019-03-28T02:22:56.910Z,11.18
2019-03-28T02:25:27.716Z,11.20
2019-03-28T02:27:58.422Z,11.03
2019-03-28T02:30:36.281Z,11.05
2019-03-28T02:33:06.991Z,11.18
2019-03-28T02:35:37.781Z,11.07
2019-03-28T02:38:08.590Z,11.17
2019-03-28T02:40:39.323Z,11.28
2019-03-28T02:43:10.165Z,11.19
2019-03-28T02:45:40.941Z,11.15
2019-03-28T02:48:13.120Z,10.80
2019-03-28T02:50:43.939Z,10.76
2019-03-28T02:53:14.939Z,10.99
2019-03-28T02:55:45.646Z,10.98
2019-03-28T02:58:16.422Z,11.29
2019-03-28T03:00:48.102Z,11.11
2019-03-28T03:03:19.660Z,11.25
2019-03-28T03:05:50.617Z,10.99
2019-03-28T03:08:21.320Z,10.77
2019-03-28T03:10:52.013Z,10.74
2019-03-28T03:13:22.782Z,11.06
2019-03-28T03:15:53.488Z,10.95
2019-03-28T03:18:24.479Z,10.88
2019-03-28T03:20:55.286Z,10.74
2019-03-28T03:23:25.967Z,10.81
2019-03-28T03:25:56.705Z,11.14
2019-03-28T03:28:27.736Z,10.52
2019-03-28T03:30:58.542Z,10.98
2019-03-28T03:33:29.249Z,11.00
2019-03-28T03:36:00.069Z,11.22
2019-03-28T03:38:30.745Z,10.91
2019-03-28T03:41:01.464Z,11.02
2019-03-28T03:43:32.620Z,10.91
2019-03-28T03:46:03.332Z,10.93
2019-03-28T03:48:34.080Z,11.05
2019-03-28T03:51:04.893Z,11.42
2019-03-28T03:53:35.653Z,10.83
2019-03-28T03:56:07.141Z,10.83
2019-03-28T03:58:38.044Z,11.19
2019-03-28T04:01:08.756Z,10.87
2019-03-28T04:03:39.456Z,10.65
2019-03-28T04:06:10.168Z,10.89
2019-03-28T04:08:40.887Z,10.92
2019-03-28T04:11:11.998Z,11.03
2019-03-28T04:13:42.681Z,10.91
2019-03-28T04:16:13.366Z,10.83
2019-03-28T04:18:44.384Z,11.18
2019-03-28T04:21:15.160Z,10.98
2019-03-28T04:23:46.271Z,11.04
2019-03-28T04:26:17.092Z,10.93
2019-03-28T04:28:47.821Z,10.72
2019-03-28T04:31:18.510Z,10.55
2019-03-28T04:33:49.211Z,10.31
2019-03-28T04:36:19.959Z,10.88
2019-03-28T04:38:50.838Z,10.81
2019-03-28T04:41:21.558Z,11.14
2019-03-28T04:43:55.680Z,11.01
2019-03-28T04:46:24.848Z,10.79
2019-03-28T04:48:55.670Z,11.08
2019-03-28T04:51:26.888Z,10.81
2019-03-28T04:53:58.211Z,10.51
2019-03-28T04:56:28.931Z,10.45
2019-03-28T04:58:59.627Z,10.65
2019-03-28T05:01:30.547Z,11.06
2019-03-28T05:04:01.267Z,10.93
2019-03-28T05:06:32.945Z,10.91
2019-03-28T05:09:05.683Z,11.09
2019-03-28T05:11:36.460Z,10.96
2019-03-28T05:14:07.240Z,10.78
2019-03-28T05:16:38.061Z,10.71
2019-03-28T05:19:08.766Z,11.03
2019-03-28T05:21:39.551Z,10.86
2019-03-28T05:24:10.359Z,11.09
2019-03-28T05:26:41.334Z,10.93
2019-03-28T05:29:12.164Z,11.03
2019-03-28T05:31:43.008Z,11.01
2019-03-28T05:34:13.731Z,11.24
2019-03-28T05:36:44.572Z,11.12
2019-03-28T05:39:15.290Z,10.88
2019-03-28T05:41:46.023Z,10.89
2019-03-28T05:44:17.304Z,10.99
2019-03-28T05:46:48.057Z,10.71
2019-03-28T05:49:19.052Z,10.91
2019-03-28T05:51:49.767Z,10.91
2019-03-28T05:54:20.879Z,10.94
2019-03-28T05:56:51.922Z,10.69
2019-03-28T05:59:22.803Z,10.83
2019-03-28T06:01:53.950Z,10.57
2019-03-28T06:04:24.724Z,10.88
2019-03-28T06:06:55.448Z,11.10
2019-03-28T06:09:26.230Z,11.31
2019-03-28T06:11:58.708Z,11.05
2019-03-28T06:14:29.742Z,11.28
2019-03-28T06:17:00.577Z,11.40
2019-03-28T06:19:31.493Z,11.26
2019-03-28T06:22:02.261Z,11.10
2019-03-28T06:24:33.241Z,10.93
2019-03-28T06:27:04.183Z,10.89
2019-03-28T06:29:34.951Z,11.62
2019-03-28T06:32:06.140Z,11.21
2019-03-28T06:34:36.969Z,11.38
2019-03-28T06:37:08.632Z,11.31
2019-03-28T06:39:40.595Z,11.07
2019-03-28T06:42:11.264Z,11.08
2019-03-28T06:44:42.100Z,11.08
2019-03-28T06:47:13.347Z,11.34
2019-03-28T06:49:44.160Z,11.47
2019-03-28T06:52:15.319Z,11.31
2019-03-28T06:54:46.887Z,11.33
2019-03-28T06:57:18.915Z,11.25
2019-03-28T06:59:49.903Z,11.21
2019-03-28T07:02:22.077Z,11.49
2019-03-28T07:04:53.031Z,11.32
2019-03-28T07:07:24.055Z,11.52
2019-03-28T07:09:54.829Z,11.67
2019-03-28T07:12:25.649Z,11.56
2019-03-28T07:14:59.371Z,11.40
2019-03-28T07:17:28.896Z,11.19
2019-03-28T07:19:59.700Z,11.58
2019-03-28T07:22:30.476Z,11.83
2019-03-28T07:25:01.199Z,11.59
2019-03-28T07:27:32.094Z,11.63
2019-03-28T07:30:02.882Z,11.62
2019-03-28T07:32:33.743Z,11.25
2019-03-28T07:35:05.535Z,11.51
2019-03-28T07:37:36.347Z,11.41
2019-03-28T07:40:08.967Z,11.71
2019-03-28T07:42:40.270Z,11.48
2019-03-28T07:45:11.801Z,11.47
2019-03-28T07:47:42.571Z,11.41
2019-03-28T07:50:14.016Z,11.11
2019-03-28T07:52:44.918Z,11.12
2019-03-28T07:55:16.631Z,11.40
2019-03-28T07:57:48.120Z,11.87
2019-03-28T08:00:19.089Z,11.79
2019-03-28T08:02:50.102Z,11.50
2019-03-28T08:05:21.304Z,11.86
2019-03-28T08:07:59.137Z,11.82
2019-03-28T08:10:29.923Z,11.21
2019-03-28T08:13:00.799Z,11.72
2019-03-28T08:15:31.599Z,11.39
2019-03-28T08:18:02.297Z,11.53
2019-03-28T08:20:33.401Z,11.54
2019-03-28T08:23:04.278Z,11.78
2019-03-28T08:25:35.015Z,11.72
2019-03-28T08:28:05.858Z,11.53
2019-03-28T08:30:38.883Z,11.18
2019-03-28T08:33:10.357Z,11.62
2019-03-28T08:35:41.592Z,11.34
2019-03-28T08:38:13.102Z,11.56
2019-03-28T08:40:45.393Z,11.32
2019-03-28T08:43:16.098Z,11.41
2019-03-28T08:45:46.799Z,11.61
2019-03-28T08:48:18.603Z,11.47
2019-03-28T08:50:49.540Z,11.65
2019-03-28T08:53:20.293Z,11.48
2019-03-28T08:55:51.094Z,11.70
2019-03-28T08:58:21.790Z,11.61
2019-03-28T09:00:53.129Z,11.98
2019-03-28T09:03:24.015Z,11.90
2019-03-28T09:05:54.789Z,12.13
2019-03-28T09:08:26.156Z,12.49
2019-03-28T09:10:57.206Z,11.98
2019-03-28T09:13:28.016Z,11.56
2019-03-28T09:15:59.421Z,11.57
2019-03-28T09:18:30.922Z,12.09
2019-03-28T09:21:01.641Z,12.22
2019-03-28T09:23:32.385Z,11.99
2019-03-28T09:26:05.788Z,12.20
2019-03-28T09:28:36.635Z,12.11
2019-03-28T09:31:19.390Z,12.11
2019-03-28T09:33:41.045Z,11.86
2019-03-28T09:36:12.199Z,11.35
2019-03-28T09:38:42.995Z,11.35
2019-03-28T09:41:13.971Z,11.12
2019-03-28T09:43:55.309Z,10.90
2019-03-28T09:46:17.487Z,11.28
2019-03-28T09:48:48.202Z,11.52
2019-03-28T09:51:18.948Z,11.46
2019-03-28T09:53:52.410Z,11.31
2019-03-28T09:56:23.606Z,11.15
2019-03-28T09:58:54.524Z,11.30
2019-03-28T10:01:25.700Z,11.81
2019-03-28T10:03:56.372Z,11.34
2019-03-28T10:06:27.490Z,12.08
2019-03-28T10:08:58.199Z,12.33
2019-03-28T10:11:28.947Z,11.93
2019-03-28T10:14:00.124Z,11.83
2019-03-28T10:16:31.035Z,11.69
2019-03-28T10:19:01.765Z,11.47
2019-03-28T10:21:32.473Z,11.70
2019-03-28T10:24:03.390Z,12.08
2019-03-28T10:26:34.168Z,12.33
2019-03-28T10:29:05.093Z,12.25
2019-03-28T10:31:35.951Z,12.11
2019-03-28T10:34:06.823Z,12.00
2019-03-28T10:36:37.517Z,12.25
2019-03-28T10:39:10.170Z,12.18
2019-03-28T10:41:40.882Z,12.56
2019-03-28T10:44:11.999Z,12.60
2019-03-28T10:46:43.789Z,12.03
2019-03-28T10:49:15.661Z,12.26
2019-03-28T10:51:46.646Z,12.01
2019-03-28T10:54:20.309Z,12.54
2019-03-28T10:56:52.334Z,12.58
2019-03-28T10:59:24.034Z,12.45
2019-03-28T11:01:54.857Z,12.32
2019-03-28T11:04:25.814Z,12.31
2019-03-28T11:06:56.805Z,12.82
2019-03-28T11:09:28.322Z,12.78
2019-03-28T11:11:58.987Z,12.29
2019-03-28T11:14:30.109Z,12.22
2019-03-28T11:17:01.078Z,12.52
2019-03-28T11:19:32.369Z,12.74
2019-03-28T11:22:03.085Z,12.72
2019-03-28T11:24:34.119Z,12.85
2019-03-28T11:27:04.918Z,11.99
2019-03-28T11:29:35.629Z,12.13
2019-03-28T11:32:06.709Z,12.49
2019-03-28T11:34:37.663Z,11.94
2019-03-28T11:37:26.408Z,12.33
2019-03-28T11:40:13.525Z,12.35
2019-03-28T11:42:44.673Z,13.86
2019-03-28T11:45:15.995Z,12.75
2019-03-28T11:47:47.438Z,12.13
2019-03-28T11:50:18.866Z,12.75
2019-03-28T11:52:49.799Z,12.31
2019-03-28T11:55:20.721Z,12.92
2019-03-28T11:57:51.426Z,12.65
2019-03-28T12:00:23.086Z,12.83
2019-03-28T12:02:54.288Z,12.19
2019-03-28T12:05:25.232Z,12.21
2019-03-28T12:07:56.002Z,12.61
2019-03-28T12:10:26.785Z,12.01
2019-03-28T12:12:57.578Z,12.13
2019-03-28T12:15:28.563Z,12.61
2019-03-28T12:17:59.604Z,12.57
2019-03-28T12:20:31.156Z,12.25
2019-03-28T12:23:01.954Z,12.37
2019-03-28T12:25:32.674Z,11.99
2019-03-28T12:28:03.819Z,12.37
2019-03-28T12:30:34.522Z,12.80
2019-03-28T12:33:05.307Z,12.45
2019-03-28T12:35:36.028Z,11.75
2019-03-28T12:38:06.906Z,11.78
2019-03-28T12:40:37.820Z,11.69
2019-03-28T12:43:08.906Z,12.00
2019-03-28T12:45:40.042Z,12.13
2019-03-28T12:48:10.783Z,12.25
2019-03-28T12:50:41.683Z,11.54
2019-03-28T12:53:12.401Z,11.98
2019-03-28T12:55:43.098Z,11.88
2019-03-28T12:58:13.828Z,11.64
2019-03-28T13:00:44.534Z,11.89
2019-03-28T13:03:15.276Z,12.12
2019-03-28T13:05:45.970Z,12.21
2019-03-28T13:08:17.628Z,12.27
2019-03-28T13:10:48.738Z,12.06
2019-03-28T13:13:19.484Z,11.64
2019-03-28T13:15:50.492Z,11.41
2019-03-28T13:18:21.326Z,11.66
2019-03-28T13:20:52.028Z,12.03
2019-03-28T13:23:23.168Z,11.97
2019-03-28T13:25:54.007Z,11.59
2019-03-28T13:28:24.801Z,11.81
2019-03-28T13:30:55.515Z,12.37
2019-03-28T13:33:26.423Z,11.38
2019-03-28T13:35:58.183Z,11.97
2019-03-28T13:38:29.382Z,12.20
2019-03-28T13:41:00.149Z,12.55
2019-03-28T13:43:31.014Z,12.73
2019-03-28T13:46:01.832Z,12.75
2019-03-28T13:48:32.645Z,12.66
2019-03-28T13:51:03.837Z,12.58
2019-03-28T13:53:39.825Z,12.26
2019-03-28T13:56:07.774Z,12.65
2019-03-28T13:58:39.407Z,13.08
2019-03-28T14:01:10.257Z,12.88
2019-03-28T14:03:41.039Z,13.20
2019-03-28T14:06:12.465Z,13.37
2019-03-28T14:08:43.178Z,13.20
2019-03-28T14:11:14.412Z,12.38
2019-03-28T14:13:45.693Z,12.32
2019-03-28T14:16:16.560Z,12.47
2019-03-28T14:18:47.259Z,12.10
2019-03-28T14:21:18.062Z,12.13
2019-03-28T14:23:49.021Z,11.82
2019-03-28T14:26:19.801Z,11.79
2019-03-28T14:28:50.656Z,11.96
2019-03-28T14:31:21.428Z,11.63
2019-03-28T14:33:52.405Z,11.68
2019-03-28T14:36:25.136Z,11.80
2019-03-28T14:38:55.703Z,12.37
2019-03-28T14:41:26.732Z,12.36
2019-03-28T14:43:57.755Z,11.84
2019-03-28T14:46:28.684Z,12.19
2019-03-28T14:48:59.566Z,12.30
2019-03-28T14:51:30.710Z,11.97
2019-03-28T14:54:01.484Z,12.22
2019-03-28T14:56:33.208Z,13.17
2019-03-28T14:59:05.769Z,13.29
2019-03-28T15:01:37.370Z,12.18
2019-03-28T15:04:09.770Z,12.56
2019-03-28T15:06:40.928Z,13.08
2019-03-28T15:09:12.150Z,12.42
2019-03-28T15:11:43.016Z,13.12
2019-03-28T15:14:14.025Z,13.21
2019-03-28T15:16:44.914Z,13.39
2019-03-28T15:19:17.075Z,13.14
2019-03-28T15:21:48.161Z,13.06
2019-03-28T15:24:19.027Z,12.87
2019-03-28T15:26:50.389Z,13.10
2019-03-28T15:29:22.226Z,12.97
2019-03-28T15:31:54.459Z,12.52
2019-03-28T15:34:25.447Z,12.78
2019-03-28T15:36:56.403Z,12.58
2019-03-28T15:39:27.946Z,12.22
2019-03-28T15:41:58.792Z,12.71
2019-03-28T15:44:29.623Z,12.51
2019-03-28T15:47:05.900Z,12.41
2019-03-28T15:49:37.441Z,12.25
2019-03-28T15:52:08.193Z,12.70
2019-03-28T15:54:39.653Z,12.65
2019-03-28T15:57:10.801Z,12.60
2019-03-28T15:59:41.503Z,11.97
2019-03-28T16:02:12.550Z,11.87
2019-03-28T16:04:43.266Z,11.95
2019-03-28T16:07:14.513Z,11.90
2019-03-28T16:09:46.655Z,11.77
2019-03-28T16:12:17.538Z,11.82
2019-03-28T16:14:48.653Z,12.31
2019-03-28T16:17:19.701Z,11.65
2019-03-28T16:19:50.514Z,11.86
2019-03-28T16:22:21.280Z,12.52
2019-03-28T16:24:52.265Z,12.55
2019-03-28T16:27:23.065Z,12.36
2019-03-28T16:29:54.473Z,12.55
2019-03-28T16:32:25.553Z,12.82
2019-03-28T16:34:56.756Z,12.74
2019-03-28T16:37:28.186Z,12.24
2019-03-28T16:39:59.029Z,12.19
2019-03-28T16:42:30.550Z,11.90
2019-03-28T16:45:01.565Z,12.31
2019-03-28T16:47:32.504Z,12.21
2019-03-28T16:50:03.970Z,12.10
2019-03-28T16:52:35.075Z,11.99
2019-03-28T16:55:07.562Z,11.96
2019-03-28T16:57:38.316Z,12.18
2019-03-28T17:00:13.043Z,12.26
2019-03-28T17:02:44.305Z,12.57
2019-03-28T17:05:15.840Z,12.70
2019-03-28T17:07:47.468Z,12.43
2019-03-28T17:10:57.853Z,12.21
2019-03-28T17:13:29.064Z,12.01
2019-03-28T17:16:00.444Z,11.99
2019-03-28T17:18:31.638Z,12.68
2019-03-28T17:21:04.197Z,13.10
2019-03-28T17:23:35.407Z,13.02
2019-03-28T17:26:06.274Z,12.97
2019-03-28T17:28:37.261Z,12.78
2019-03-28T17:31:08.770Z,12.70
2019-03-28T17:33:39.637Z,12.86
2019-03-28T17:36:10.489Z,12.86
2019-03-28T17:38:41.372Z,12.80
2019-03-28T17:41:12.869Z,12.91
2019-03-28T17:43:44.435Z,12.64
2019-03-28T17:46:15.486Z,12.84
2019-03-28T17:48:51.687Z,12.88
2019-03-28T17:51:22.673Z,12.88
2019-03-28T17:53:56.094Z,13.01
2019-03-28T17:56:26.399Z,13.10
2019-03-28T17:58:59.450Z,13.19
2019-03-28T18:01:30.387Z,13.12
2019-03-28T18:04:01.199Z,13.20
2019-03-28T18:06:32.432Z,13.07
2019-03-28T18:09:04.767Z,13.09
2019-03-28T18:11:39.007Z,13.12
2019-03-28T18:14:09.900Z,13.18
2019-03-28T18:16:41.413Z,13.06
2019-03-28T18:19:13.013Z,12.97
2019-03-28T18:21:44.109Z,12.80
2019-03-28T18:24:15.632Z,12.61
2019-03-28T18:26:46.484Z,13.06
2019-03-28T18:29:19.190Z,12.99
2019-03-28T18:31:52.383Z,12.98
2019-03-28T18:34:22.797Z,13.03
2019-03-28T18:36:53.731Z,13.13
2019-03-28T18:39:24.473Z,13.01
2019-03-28T18:41:56.713Z,13.15
2019-03-28T18:44:27.650Z,12.96
2019-03-28T18:46:58.759Z,13.11
2019-03-28T18:49:30.945Z,13.08
2019-03-28T18:52:02.318Z,12.97
2019-03-28T18:54:33.944Z,12.56
2019-03-28T18:57:04.828Z,12.91
2019-03-28T18:59:35.776Z,12.96
2019-03-28T19:02:06.872Z,12.85
2019-03-28T19:04:37.971Z,13.11
2019-03-28T19:07:09.260Z,13.11
2019-03-28T19:09:40.962Z,13.00
2019-03-28T19:12:12.670Z,13.14
2019-03-28T19:14:47.070Z,13.13
2019-03-28T19:17:18.768Z,13.15
2019-03-28T19:19:49.765Z,12.99
2019-03-28T19:22:20.663Z,12.48
2019-03-28T19:24:54.219Z,13.18
2019-03-28T19:27:25.586Z,13.70
2019-03-28T19:29:56.976Z,14.03
2019-03-28T19:32:29.830Z,13.87
2019-03-28T19:35:03.004Z,12.72
2019-03-28T19:37:34.951Z,13.01
2019-03-28T19:40:07.861Z,12.60
2019-03-28T19:42:39.987Z,12.50
2019-03-28T19:45:14.538Z,12.86
2019-03-28T19:47:45.649Z,12.88
2019-03-28T19:50:29.282Z,13.30
2019-03-28T19:53:02.185Z,13.74
2019-03-28T19:55:33.050Z,13.44
2019-03-28T19:58:05.005Z,13.18
2019-03-28T20:00:37.451Z,13.16
2019-03-28T20:03:09.220Z,13.06
2019-03-28T20:05:47.759Z,13.05
2019-03-28T20:08:16.441Z,12.80
2019-03-28T20:10:48.944Z,12.92
2019-03-28T20:13:19.922Z,12.86
2019-03-28T20:15:52.283Z,13.05
2019-03-28T20:18:23.893Z,12.90
2019-03-28T20:20:55.726Z,12.05
2019-03-28T20:23:28.339Z,12.20
2019-03-28T20:26:00.406Z,12.21
2019-03-28T20:28:34.987Z,12.25
2019-03-28T20:31:06.117Z,11.84
2019-03-28T20:33:38.309Z,11.91
2019-03-28T20:36:35.621Z,12.32
2019-03-28T20:38:44.805Z,12.69
2019-03-28T20:41:19.023Z,12.88
2019-03-28T20:43:51.490Z,12.98
2019-03-28T20:46:23.641Z,13.05
2019-03-28T20:48:56.123Z,13.01
2019-03-28T20:51:27.685Z,13.02
2019-03-28T20:54:00.022Z,13.06
2019-03-28T20:56:30.981Z,13.09
2019-03-28T20:59:01.853Z,13.05
2019-03-28T21:01:32.977Z,13.01
2019-03-28T21:04:04.168Z,13.12
2019-03-28T21:06:35.720Z,13.12
2019-03-28T21:09:09.317Z,12.94
2019-03-28T21:11:40.756Z,13.06
2019-03-28T21:14:12.648Z,13.08
2019-03-28T21:16:44.543Z,13.10
2019-03-28T21:19:17.100Z,13.14
2019-03-28T21:21:49.337Z,12.98
2019-03-28T21:24:22.155Z,13.10
2019-03-28T21:26:54.785Z,13.03
2019-03-28T21:29:25.665Z,13.02
2019-03-28T21:31:59.028Z,12.86
2019-03-28T21:34:29.991Z,12.92
2019-03-28T21:37:02.580Z,13.06
2019-03-28T21:39:34.204Z,13.00
2019-03-28T21:42:07.471Z,13.05
2019-03-28T21:44:38.485Z,13.08
2019-03-28T21:47:10.772Z,13.16
2019-03-28T21:49:42.724Z,13.03
2019-03-28T21:52:14.350Z,13.02
2019-03-28T21:54:45.971Z,13.00
2019-03-28T21:57:18.815Z,13.01
2019-03-28T21:59:52.180Z,13.01
2019-03-28T22:02:24.866Z,13.06
2019-03-28T22:04:55.966Z,13.08
2019-03-28T22:07:28.153Z,12.97
2019-03-28T22:10:00.275Z,13.02
2019-03-28T22:12:31.306Z,12.99
2019-03-28T22:15:02.565Z,12.97
2019-03-28T22:17:33.501Z,12.93
2019-03-28T22:20:04.807Z,13.08
2019-03-28T22:22:36.249Z,13.10
2019-03-28T22:25:08.759Z,13.15
2019-03-28T22:27:41.230Z,13.11
2019-03-28T22:30:14.165Z,13.09
2019-03-28T22:32:48.297Z,13.05
2019-03-28T22:35:19.309Z,12.89
2019-03-28T22:37:51.997Z,13.00
2019-03-28T22:40:24.226Z,13.06
2019-03-28T22:42:55.031Z,13.09
2019-03-28T22:45:26.091Z,12.90
2019-03-28T22:48:09.791Z,13.05
2019-03-28T22:50:30.794Z,13.03
2019-03-28T22:53:02.436Z,13.01
2019-03-28T22:55:33.330Z,12.87
2019-03-28T22:58:04.865Z,12.99
2019-03-28T23:00:42.541Z,12.97
2019-03-28T23:03:16.784Z,12.94
2019-03-28T23:05:48.202Z,12.96
2019-03-28T23:08:20.360Z,12.96
2019-03-28T23:10:51.849Z,12.81
2019-03-28T23:13:23.627Z,12.83
2019-03-28T23:15:54.909Z,12.85
2019-03-28T23:18:26.433Z,12.56
2019-03-28T23:20:57.536Z,12.72
2019-03-28T23:23:29.327Z,12.61
2019-03-28T23:26:00.448Z,12.59
2019-03-28T23:28:31.957Z,12.45
2019-03-28T23:31:13.238Z,12.80
2019-03-28T23:33:47.130Z,12.86
2019-03-28T23:36:19.341Z,12.82
2019-03-28T23:38:50.434Z,12.98
2019-03-28T23:41:23.580Z,12.85
2019-03-28T23:43:55.158Z,12.99
2019-03-28T23:46:27.019Z,12.94
2019-03-28T23:49:38.671Z,12.98
2019-03-28T23:51:40.995Z,12.93
2019-03-28T23:54:13.179Z,12.85
2019-03-28T23:56:44.715Z,12.56
2019-03-28T23:59:15.651Z,12.80
